createdAt,value
2023-05-06T00:00:00.175Z,15.82
2023-05-06T00:01:00.140Z,15.82
2023-05-06T00:02:00.109Z,15.82
2023-05-06T00:03:00.137Z,15.82
2023-05-06T00:04:00.286Z,15.80
2023-05-06T00:05:00.052Z,15.80
2023-05-06T00:06:00.032Z,15.78
2023-05-06T00:07:00.001Z,15.76
2023-05-06T00:08:00.040Z,15.76
2023-05-06T00:08:59.974Z,15.75
2023-05-06T00:09:59.991Z,15.75
2023-05-06T00:10:59.943Z,15.75
2023-05-06T00:11:59.978Z,15.76
2023-05-06T00:12:59.974Z,15.75
2023-05-06T00:13:59.926Z,15.75
2023-05-06T00:14:59.933Z,15.74
2023-05-06T00:15:59.916Z,15.74
2023-05-06T00:16:59.857Z,15.72
2023-05-06T00:17:59.881Z,15.72
2023-05-06T00:18:59.831Z,15.72
2023-05-06T00:19:59.866Z,15.71
2023-05-06T00:20:59.810Z,15.68
2023-05-06T00:21:59.833Z,15.65
2023-05-06T00:22:59.789Z,15.67
2023-05-06T00:23:59.802Z,15.65
2023-05-06T00:24:59.765Z,15.62
2023-05-06T00:25:59.768Z,15.62
2023-05-06T00:26:59.764Z,15.64
2023-05-06T00:27:59.753Z,15.62
2023-05-06T00:28:59.722Z,15.62
2023-05-06T00:29:59.725Z,15.64
2023-05-06T00:30:59.681Z,15.65
2023-05-06T00:31:59.787Z,15.65
2023-05-06T00:32:59.715Z,15.65
2023-05-06T00:33:59.697Z,15.64
2023-05-06T00:34:59.649Z,15.64
2023-05-06T00:35:59.640Z,15.62
2023-05-06T00:36:59.622Z,15.60
2023-05-06T00:37:59.608Z,15.59
2023-05-06T00:38:59.598Z,15.59
2023-05-06T00:39:59.584Z,15.57
2023-05-06T00:40:59.552Z,15.59
2023-05-06T00:41:59.572Z,15.59
2023-05-06T00:42:59.509Z,15.59
2023-05-06T00:43:59.558Z,15.54
2023-05-06T00:44:59.485Z,15.53
2023-05-06T00:45:59.558Z,15.51
2023-05-06T00:46:59.488Z,15.49
2023-05-06T00:47:59.529Z,15.46
2023-05-06T00:48:59.506Z,15.41
2023-05-06T00:49:59.476Z,15.36
2023-05-06T00:50:59.421Z,15.32
2023-05-06T00:51:59.418Z,15.32
2023-05-06T00:52:59.455Z,15.32
2023-05-06T00:53:59.430Z,15.32
2023-05-06T00:54:59.380Z,15.31
2023-05-06T00:55:59.387Z,15.25
2023-05-06T00:56:59.361Z,15.20
2023-05-06T00:57:59.344Z,15.17
2023-05-06T00:58:59.372Z,15.16
2023-05-06T00:59:59.328Z,15.13
2023-05-06T01:00:59.277Z,15.10
2023-05-06T01:01:59.316Z,15.10
2023-05-06T01:02:59.443Z,15.11
2023-05-06T01:03:59.430Z,15.10
2023-05-06T01:04:59.290Z,15.09
2023-05-06T01:05:59.244Z,15.10
2023-05-06T01:06:59.216Z,15.09
2023-05-06T01:07:59.233Z,15.09
2023-05-06T01:08:59.176Z,15.07
2023-05-06T01:09:59.228Z,15.07
2023-05-06T01:10:59.159Z,15.06
2023-05-06T01:11:59.176Z,15.09
2023-05-06T01:12:59.182Z,15.07
2023-05-06T01:13:59.132Z,15.07
2023-05-06T01:14:59.109Z,15.09
2023-05-06T01:15:59.148Z,15.09
2023-05-06T01:16:59.135Z,15.07
2023-05-06T01:17:59.123Z,15.07
2023-05-06T01:18:59.048Z,15.06
2023-05-06T01:19:59.110Z,15.03
2023-05-06T01:20:59.050Z,15.02
2023-05-06T01:21:59.055Z,15.01
2023-05-06T01:22:59.014Z,14.95
2023-05-06T01:23:59.039Z,14.94
2023-05-06T01:24:58.973Z,14.91
2023-05-06T01:25:59.026Z,14.89
2023-05-06T01:26:58.965Z,14.86
2023-05-06T01:27:58.964Z,14.88
2023-05-06T01:28:58.952Z,14.88
2023-05-06T01:29:58.938Z,14.84
2023-05-06T01:30:58.925Z,14.81
2023-05-06T01:31:58.907Z,14.80
2023-05-06T01:32:58.909Z,14.73
2023-05-06T01:33:58.897Z,14.69
2023-05-06T01:34:58.844Z,14.65
2023-05-06T01:35:58.849Z,14.64
2023-05-06T01:36:58.841Z,14.61
2023-05-06T01:37:58.814Z,14.60
2023-05-06T01:38:58.802Z,14.57
2023-05-06T01:39:58.806Z,14.54
2023-05-06T01:40:58.774Z,14.54
2023-05-06T01:41:58.798Z,14.54
2023-05-06T01:42:58.742Z,14.55
2023-05-06T01:43:58.752Z,14.55
2023-05-06T01:44:58.711Z,14.52
2023-05-06T01:45:58.768Z,14.51
2023-05-06T01:46:58.813Z,14.51
2023-05-06T01:47:58.718Z,14.50
2023-05-06T01:48:58.677Z,14.47
2023-05-06T01:49:58.686Z,14.47
2023-05-06T01:50:58.642Z,14.46
2023-05-06T01:51:58.661Z,14.42
2023-05-06T01:52:58.633Z,14.40
2023-05-06T01:53:58.643Z,14.42
2023-05-06T01:54:58.584Z,14.39
2023-05-06T01:55:58.598Z,14.39
2023-05-06T01:56:58.589Z,14.37
2023-05-06T01:57:58.564Z,14.35
2023-05-06T01:58:59.523Z,14.35
2023-05-06T01:59:58.511Z,14.33
2023-05-06T02:00:58.523Z,14.33
2023-05-06T02:01:58.550Z,14.32
2023-05-06T02:02:58.551Z,14.33
2023-05-06T02:03:58.517Z,14.32
2023-05-06T02:04:58.498Z,14.32
2023-05-06T02:05:58.449Z,14.29
2023-05-06T02:06:58.476Z,14.33
2023-05-06T02:07:58.475Z,14.33
2023-05-06T02:08:58.452Z,14.35
2023-05-06T02:09:58.447Z,14.35
2023-05-06T02:10:58.401Z,14.35
2023-05-06T02:11:58.351Z,14.32
2023-05-06T02:12:58.414Z,14.27
2023-05-06T02:13:58.363Z,14.27
2023-05-06T02:14:58.337Z,14.27
2023-05-06T02:15:58.323Z,14.25
2023-05-06T02:16:58.308Z,14.24
2023-05-06T02:17:58.322Z,14.21
2023-05-06T02:18:58.309Z,14.20
2023-05-06T02:19:58.293Z,14.18
2023-05-06T02:20:58.283Z,14.14
2023-05-06T02:21:58.243Z,14.12
2023-05-06T02:22:58.238Z,14.10
2023-05-06T02:23:58.183Z,14.07
2023-05-06T02:24:58.213Z,14.06
2023-05-06T02:25:58.200Z,14.04
2023-05-06T02:26:58.182Z,14.03
2023-05-06T02:27:58.135Z,14.03
2023-05-06T02:28:58.166Z,14.02
2023-05-06T02:29:58.118Z,14.03
2023-05-06T02:30:58.169Z,14.02
2023-05-06T02:31:58.183Z,14.02
2023-05-06T02:32:58.142Z,14.02
2023-05-06T02:33:58.062Z,14.03
2023-05-06T02:34:58.083Z,14.03
2023-05-06T02:35:58.078Z,14.03
2023-05-06T02:36:58.037Z,14.00
2023-05-06T02:37:58.007Z,13.99
2023-05-06T02:38:58.051Z,13.99
2023-05-06T02:39:58.062Z,13.96
2023-05-06T02:40:58.016Z,13.97
2023-05-06T02:41:57.958Z,13.97
2023-05-06T02:42:58.042Z,13.96
2023-05-06T02:43:57.932Z,13.97
2023-05-06T02:44:57.983Z,13.97
2023-05-06T02:45:57.962Z,13.96
2023-05-06T02:46:57.943Z,14.00
2023-05-06T02:47:57.929Z,14.02
2023-05-06T02:48:57.905Z,13.99
2023-05-06T02:49:57.855Z,13.99
2023-05-06T02:50:57.866Z,13.95
2023-05-06T02:51:57.851Z,13.89
2023-05-06T02:52:57.822Z,13.88
2023-05-06T02:53:57.798Z,13.85
2023-05-06T02:54:57.807Z,13.82
2023-05-06T02:55:57.887Z,13.77
2023-05-06T02:56:57.802Z,13.70
2023-05-06T02:57:57.752Z,13.66
2023-05-06T02:58:57.751Z,13.62
2023-05-06T02:59:57.722Z,13.57
2023-05-06T03:00:57.761Z,13.49
2023-05-06T03:01:57.706Z,13.41
2023-05-06T03:02:57.780Z,13.36
2023-05-06T03:03:57.696Z,13.29
2023-05-06T03:04:57.690Z,13.26
2023-05-06T03:05:57.630Z,13.30
2023-05-06T03:06:57.671Z,13.36
2023-05-06T03:07:57.613Z,13.41
2023-05-06T03:08:57.630Z,13.44
2023-05-06T03:09:57.583Z,13.49
2023-05-06T03:10:57.615Z,13.54
2023-05-06T03:11:57.562Z,13.54
2023-05-06T03:12:57.602Z,13.54
2023-05-06T03:13:57.557Z,13.46
2023-05-06T03:14:57.561Z,13.41
2023-05-06T03:15:57.502Z,13.38
2023-05-06T03:16:57.674Z,13.29
2023-05-06T03:17:57.543Z,13.22
2023-05-06T03:18:57.480Z,13.12
2023-05-06T03:19:57.467Z,13.07
2023-05-06T03:20:57.500Z,13.04
2023-05-06T03:21:57.445Z,13.05
2023-05-06T03:22:57.423Z,13.05
2023-05-06T03:23:57.443Z,13.00
2023-05-06T03:24:57.403Z,13.00
2023-05-06T03:25:57.360Z,12.97
2023-05-06T03:26:57.403Z,13.01
2023-05-06T03:27:57.364Z,13.03
2023-05-06T03:28:57.439Z,13.04
2023-05-06T03:29:57.328Z,13.07
2023-05-06T03:30:57.348Z,13.08
2023-05-06T03:31:57.319Z,13.10
2023-05-06T03:32:57.362Z,13.14
2023-05-06T03:33:57.277Z,13.20
2023-05-06T03:34:57.318Z,13.23
2023-05-06T03:35:57.236Z,13.26
2023-05-06T03:36:57.252Z,13.30
2023-05-06T03:37:57.222Z,13.33
2023-05-06T03:38:57.218Z,13.33
2023-05-06T03:39:57.212Z,13.32
2023-05-06T03:40:57.260Z,13.33
2023-05-06T03:41:57.166Z,13.36
2023-05-06T03:42:57.179Z,13.38
2023-05-06T03:43:57.160Z,13.39
2023-05-06T03:44:57.172Z,13.38
2023-05-06T03:45:57.132Z,13.38
2023-05-06T03:46:57.162Z,13.38
2023-05-06T03:47:58.451Z,13.38
2023-05-06T03:48:57.118Z,13.36
2023-05-06T03:49:57.056Z,13.36
2023-05-06T03:50:57.067Z,13.30
2023-05-06T03:51:57.034Z,13.30
2023-05-06T03:52:57.058Z,13.26
2023-05-06T03:53:57.000Z,13.15
2023-05-06T03:54:57.042Z,13.04
2023-05-06T03:55:56.988Z,12.90
2023-05-06T03:56:57.003Z,12.77
2023-05-06T03:57:56.954Z,12.64
2023-05-06T03:58:57.015Z,12.53
2023-05-06T03:59:56.931Z,12.42
2023-05-06T04:00:56.927Z,12.45
2023-05-06T04:01:56.925Z,12.45
2023-05-06T04:02:56.974Z,12.45
2023-05-06T04:03:56.906Z,12.45
2023-05-06T04:04:56.869Z,12.47
2023-05-06T04:05:56.916Z,12.52
2023-05-06T04:06:56.886Z,12.56
2023-05-06T04:07:56.809Z,12.62
2023-05-06T04:08:56.831Z,12.68
2023-05-06T04:09:56.816Z,12.72
2023-05-06T04:10:56.850Z,12.77
2023-05-06T04:11:56.750Z,12.78
2023-05-06T04:12:56.781Z,12.79
2023-05-06T04:13:56.761Z,12.75
2023-05-06T04:14:56.769Z,12.72
2023-05-06T04:15:56.728Z,12.72
2023-05-06T04:16:56.716Z,12.71
2023-05-06T04:17:56.721Z,12.68
2023-05-06T04:18:56.743Z,12.64
2023-05-06T04:19:56.665Z,12.60
2023-05-06T04:20:56.698Z,12.59
2023-05-06T04:21:56.638Z,12.62
2023-05-06T04:22:56.652Z,12.60
2023-05-06T04:23:56.621Z,12.65
2023-05-06T04:24:56.635Z,12.68
2023-05-06T04:25:56.585Z,12.72
2023-05-06T04:26:56.573Z,12.75
2023-05-06T04:27:56.548Z,12.75
2023-05-06T04:28:56.564Z,12.78
2023-05-06T04:29:56.549Z,12.77
2023-05-06T04:30:56.528Z,12.78
2023-05-06T04:31:56.524Z,12.79
2023-05-06T04:32:56.579Z,12.82
2023-05-06T04:33:56.468Z,12.87
2023-05-06T04:34:56.495Z,12.87
2023-05-06T04:35:56.436Z,12.89
2023-05-06T04:36:56.468Z,12.90
2023-05-06T04:37:56.411Z,12.89
2023-05-06T04:38:56.438Z,12.89
2023-05-06T04:39:56.413Z,12.89
2023-05-06T04:40:56.402Z,12.93
2023-05-06T04:41:56.373Z,12.93
2023-05-06T04:42:56.442Z,12.93
2023-05-06T04:43:56.336Z,12.93
2023-05-06T04:44:56.346Z,12.96
2023-05-06T04:45:56.388Z,12.97
2023-05-06T04:46:56.313Z,13.00
2023-05-06T04:47:56.382Z,12.96
2023-05-06T04:48:56.291Z,12.95
2023-05-06T04:49:56.251Z,12.93
2023-05-06T04:50:56.290Z,12.92
2023-05-06T04:51:56.256Z,12.92
2023-05-06T04:52:56.234Z,12.96
2023-05-06T04:53:56.208Z,12.96
2023-05-06T04:54:56.232Z,13.01
2023-05-06T04:55:56.189Z,13.05
2023-05-06T04:56:56.187Z,13.08
2023-05-06T04:57:56.237Z,13.10
2023-05-06T04:58:56.162Z,13.12
2023-05-06T04:59:56.119Z,13.12
2023-05-06T05:00:56.238Z,13.17
2023-05-06T05:01:56.145Z,13.22
2023-05-06T05:02:56.168Z,13.26
2023-05-06T05:03:56.138Z,13.32
2023-05-06T05:04:56.108Z,13.36
2023-05-06T05:05:56.025Z,13.39
2023-05-06T05:06:56.066Z,13.41
2023-05-06T05:07:56.045Z,13.44
2023-05-06T05:08:56.294Z,13.45
2023-05-06T05:09:55.983Z,13.48
2023-05-06T05:10:56.034Z,13.51
2023-05-06T05:11:55.973Z,13.54
2023-05-06T05:12:55.991Z,13.54
2023-05-06T05:13:57.381Z,13.54
2023-05-06T05:14:55.980Z,13.55
2023-05-06T05:15:55.919Z,13.60
2023-05-06T05:16:56.062Z,13.60
2023-05-06T05:17:55.921Z,13.63
2023-05-06T05:18:55.910Z,13.63
2023-05-06T05:19:55.889Z,13.64
2023-05-06T05:20:55.884Z,13.63
2023-05-06T05:21:55.830Z,13.63
2023-05-06T05:22:55.853Z,13.60
2023-05-06T05:23:55.812Z,13.62
2023-05-06T05:24:55.846Z,13.64
2023-05-06T05:25:55.774Z,13.67
2023-05-06T05:26:55.792Z,13.71
2023-05-06T05:27:55.756Z,13.75
2023-05-06T05:28:55.778Z,13.79
2023-05-06T05:29:55.752Z,13.82
2023-05-06T05:30:55.775Z,13.85
2023-05-06T05:31:55.711Z,13.88
2023-05-06T05:32:55.809Z,13.88
2023-05-06T05:33:55.717Z,13.91
2023-05-06T05:34:55.719Z,13.92
2023-05-06T05:35:55.667Z,13.96
2023-05-06T05:36:55.684Z,13.97
2023-05-06T05:37:55.627Z,13.99
2023-05-06T05:38:55.635Z,13.99
2023-05-06T05:39:55.612Z,14.02
2023-05-06T05:40:55.601Z,14.06
2023-05-06T05:41:55.586Z,14.10
2023-05-06T05:42:55.600Z,14.14
2023-05-06T05:43:55.549Z,14.15
2023-05-06T05:44:55.612Z,14.18
2023-05-06T05:45:55.543Z,14.22
2023-05-06T05:46:55.535Z,14.22
2023-05-06T05:47:55.555Z,14.24
2023-05-06T05:48:55.501Z,14.24
2023-05-06T05:49:55.496Z,14.24
2023-05-06T05:50:55.507Z,14.25
2023-05-06T05:51:55.445Z,14.27
2023-05-06T05:52:55.448Z,14.28
2023-05-06T05:53:55.431Z,14.28
2023-05-06T05:54:55.411Z,14.32
2023-05-06T05:55:55.376Z,14.33
2023-05-06T05:56:55.384Z,14.37
2023-05-06T05:57:55.395Z,14.37
2023-05-06T05:58:55.374Z,14.36
2023-05-06T05:59:55.342Z,14.36
2023-05-06T06:00:55.340Z,14.37
2023-05-06T06:01:55.929Z,14.40
2023-05-06T06:02:57.932Z,14.43
2023-05-06T06:03:55.373Z,14.46
2023-05-06T06:04:55.360Z,14.46
2023-05-06T06:05:55.315Z,14.45
2023-05-06T06:06:55.245Z,14.45
2023-05-06T06:07:55.213Z,14.45
2023-05-06T06:08:55.252Z,14.46
2023-05-06T06:09:55.191Z,14.50
2023-05-06T06:10:55.207Z,14.52
2023-05-06T06:11:57.352Z,14.52
2023-05-06T06:12:55.160Z,14.52
2023-05-06T06:13:55.202Z,14.55
2023-05-06T06:14:55.123Z,14.60
2023-05-06T06:15:55.165Z,14.61
2023-05-06T06:16:55.116Z,14.64
2023-05-06T06:17:55.177Z,14.65
2023-05-06T06:18:55.081Z,14.62
2023-05-06T06:19:55.141Z,14.61
2023-05-06T06:20:55.374Z,14.62
2023-05-06T06:21:55.058Z,14.64
2023-05-06T06:22:55.027Z,14.65
2023-05-06T06:23:55.052Z,14.68
2023-05-06T06:24:54.991Z,14.69
2023-05-06T06:25:55.003Z,14.72
2023-05-06T06:26:54.969Z,14.72
2023-05-06T06:27:54.968Z,14.73
2023-05-06T06:28:54.956Z,14.68
2023-05-06T06:29:54.959Z,14.65
2023-05-06T06:30:54.937Z,14.68
2023-05-06T06:31:54.980Z,14.65
2023-05-06T06:32:54.966Z,14.65
2023-05-06T06:33:54.916Z,14.65
2023-05-06T06:34:54.878Z,14.64
2023-05-06T06:35:54.910Z,14.65
2023-05-06T06:36:54.835Z,14.65
2023-05-06T06:37:54.892Z,14.68
2023-05-06T06:38:54.825Z,14.70
2023-05-06T06:39:54.835Z,14.72
2023-05-06T06:40:54.805Z,14.75
2023-05-06T06:41:54.839Z,14.80
2023-05-06T06:42:54.765Z,14.84
2023-05-06T06:43:54.765Z,14.92
2023-05-06T06:44:54.722Z,14.95
2023-05-06T06:45:54.784Z,14.99
2023-05-06T06:46:54.713Z,15.06
2023-05-06T06:47:54.810Z,15.10
2023-05-06T06:48:54.683Z,15.16
2023-05-06T06:49:54.686Z,15.14
2023-05-06T06:50:54.649Z,15.14
2023-05-06T06:51:54.660Z,15.16
2023-05-06T06:52:54.651Z,15.20
2023-05-06T06:53:54.667Z,15.28
2023-05-06T06:54:54.598Z,15.28
2023-05-06T06:55:54.632Z,15.31
2023-05-06T06:56:56.384Z,15.34
2023-05-06T06:57:54.619Z,15.32
2023-05-06T06:58:54.549Z,15.34
2023-05-06T06:59:54.570Z,15.36
2023-05-06T07:00:54.570Z,15.39
2023-05-06T07:01:54.536Z,15.39
2023-05-06T07:02:54.568Z,15.41
2023-05-06T07:03:54.536Z,15.44
2023-05-06T07:04:54.490Z,15.46
2023-05-06T07:05:54.479Z,15.51
2023-05-06T07:06:54.446Z,15.56
2023-05-06T07:07:54.459Z,15.57
2023-05-06T07:08:54.464Z,15.56
2023-05-06T07:09:54.420Z,15.56
2023-05-06T07:10:54.385Z,15.53
2023-05-06T07:11:54.407Z,15.56
2023-05-06T07:12:54.475Z,15.60
2023-05-06T07:13:55.288Z,15.64
2023-05-06T07:14:54.369Z,15.65
2023-05-06T07:15:54.353Z,15.68
2023-05-06T07:16:54.331Z,15.68
2023-05-06T07:17:54.325Z,15.68
2023-05-06T07:18:54.298Z,15.69
2023-05-06T07:19:54.309Z,15.71
2023-05-06T07:20:54.249Z,15.76
2023-05-06T07:21:54.284Z,15.86
2023-05-06T07:22:54.667Z,15.92
2023-05-06T07:23:54.254Z,16.01
2023-05-06T07:24:54.242Z,16.12
2023-05-06T07:25:54.221Z,16.23
2023-05-06T07:26:54.195Z,16.28
2023-05-06T07:27:54.207Z,16.35
2023-05-06T07:28:54.169Z,16.48
2023-05-06T07:29:54.174Z,16.58
2023-05-06T07:30:54.189Z,16.70
2023-05-06T07:31:54.453Z,16.78
2023-05-06T07:32:54.192Z,16.82
2023-05-06T07:33:54.127Z,16.91
2023-05-06T07:34:54.083Z,17.06
2023-05-06T07:35:54.111Z,17.23
2023-05-06T07:36:54.048Z,17.40
2023-05-06T07:37:54.065Z,17.54
2023-05-06T07:38:54.032Z,17.56
2023-05-06T07:39:54.072Z,17.63
2023-05-06T07:40:54.108Z,17.71
2023-05-06T07:41:54.010Z,17.74
2023-05-06T07:42:53.965Z,17.77
2023-05-06T07:43:53.973Z,17.70
2023-05-06T07:44:53.962Z,17.70
2023-05-06T07:45:53.980Z,17.71
2023-05-06T07:46:53.977Z,17.78
2023-05-06T07:47:54.065Z,17.90
2023-05-06T07:48:53.904Z,18.03
2023-05-06T07:49:53.932Z,18.12
2023-05-06T07:50:53.860Z,18.27
2023-05-06T07:51:53.889Z,18.35
2023-05-06T07:52:53.846Z,18.47
2023-05-06T07:53:53.874Z,18.47
2023-05-06T07:54:53.824Z,18.48
2023-05-06T07:55:53.831Z,18.52
2023-05-06T07:56:53.780Z,18.57
2023-05-06T07:57:53.785Z,18.65
2023-05-06T07:58:53.781Z,18.65
2023-05-06T07:59:53.775Z,18.60
2023-05-06T08:00:53.748Z,18.54
2023-05-06T08:01:53.731Z,18.47
2023-05-06T08:02:53.758Z,18.48
2023-05-06T08:03:53.769Z,18.47
2023-05-06T08:04:53.798Z,18.42
2023-05-06T08:05:53.799Z,18.50
2023-05-06T08:06:53.656Z,18.37
2023-05-06T08:07:53.675Z,18.33
2023-05-06T08:08:53.630Z,18.39
2023-05-06T08:09:53.640Z,18.50
2023-05-06T08:10:53.624Z,18.69
2023-05-06T08:11:53.617Z,18.92
2023-05-06T08:12:53.675Z,18.99
2023-05-06T08:13:53.586Z,19.08
2023-05-06T08:14:53.552Z,19.16
2023-05-06T08:15:53.901Z,19.19
2023-05-06T08:16:55.748Z,19.21
2023-05-06T08:17:53.563Z,19.33
2023-05-06T08:18:53.517Z,19.51
2023-05-06T08:19:53.509Z,19.54
2023-05-06T08:20:53.473Z,19.61
2023-05-06T08:21:53.494Z,19.58
2023-05-06T08:22:53.483Z,19.51
2023-05-06T08:23:53.451Z,19.48
2023-05-06T08:24:53.426Z,19.43
2023-05-06T08:25:55.750Z,19.28
2023-05-06T08:26:53.393Z,19.18
2023-05-06T08:27:53.436Z,19.00
2023-05-06T08:28:53.373Z,18.90
2023-05-06T08:29:53.367Z,18.87
2023-05-06T08:30:53.356Z,18.90
2023-05-06T08:31:53.503Z,18.98
2023-05-06T08:32:53.394Z,19.06
2023-05-06T08:33:54.734Z,19.08
2023-05-06T08:34:53.306Z,19.14
2023-05-06T08:35:53.304Z,19.19
2023-05-06T08:36:53.290Z,19.19
2023-05-06T08:37:53.272Z,19.23
2023-05-06T08:38:53.258Z,19.22
2023-05-06T08:39:53.268Z,19.23
2023-05-06T08:40:53.204Z,19.21
2023-05-06T08:41:53.230Z,19.22
2023-05-06T08:42:53.203Z,19.19
2023-05-06T08:43:53.207Z,19.16
2023-05-06T08:44:53.160Z,19.19
2023-05-06T08:45:53.181Z,19.21
2023-05-06T08:46:53.131Z,19.22
2023-05-06T08:47:53.160Z,19.25
2023-05-06T08:48:53.101Z,19.19
2023-05-06T08:49:53.140Z,19.18
2023-05-06T08:50:53.092Z,19.21
2023-05-06T08:51:53.083Z,19.16
2023-05-06T08:52:53.052Z,19.10
2023-05-06T08:53:53.079Z,19.14
2023-05-06T08:54:53.066Z,19.25
2023-05-06T08:55:53.034Z,19.33
2023-05-06T08:56:53.018Z,19.43
2023-05-06T08:57:53.015Z,19.54
2023-05-06T08:58:52.991Z,19.61
2023-05-06T08:59:53.002Z,19.69
2023-05-06T09:00:52.979Z,19.69
2023-05-06T09:01:52.984Z,19.56
2023-05-06T09:02:53.023Z,19.51
2023-05-06T09:03:53.029Z,19.43
2023-05-06T09:04:52.920Z,19.44
2023-05-06T09:05:52.908Z,19.48
2023-05-06T09:06:52.882Z,19.56
2023-05-06T09:07:52.895Z,19.56
2023-05-06T09:08:52.838Z,19.63
2023-05-06T09:09:53.157Z,19.71
2023-05-06T09:10:52.856Z,19.76
2023-05-06T09:11:52.834Z,19.69
2023-05-06T09:12:52.870Z,19.66
2023-05-06T09:13:52.794Z,19.63
2023-05-06T09:14:52.751Z,19.62
2023-05-06T09:15:52.793Z,19.62
2023-05-06T09:16:52.875Z,19.66
2023-05-06T09:17:52.801Z,19.76
2023-05-06T09:18:52.788Z,19.73
2023-05-06T09:19:52.717Z,19.71
2023-05-06T09:20:52.720Z,19.74
2023-05-06T09:21:52.707Z,19.80
2023-05-06T09:22:52.660Z,19.88
2023-05-06T09:23:52.665Z,19.92
2023-05-06T09:24:52.655Z,20.01
2023-05-06T09:25:52.644Z,19.99
2023-05-06T09:26:52.636Z,19.92
2023-05-06T09:27:52.618Z,19.81
2023-05-06T09:28:52.570Z,19.74
2023-05-06T09:29:52.582Z,19.63
2023-05-06T09:30:52.623Z,19.62
2023-05-06T09:31:52.576Z,19.62
2023-05-06T09:32:52.548Z,19.65
2023-05-06T09:33:52.544Z,19.65
2023-05-06T09:34:52.502Z,19.69
2023-05-06T09:35:52.523Z,19.80
2023-05-06T09:36:52.522Z,19.76
2023-05-06T09:37:52.482Z,19.81
2023-05-06T09:38:52.454Z,19.92
2023-05-06T09:39:52.455Z,20.05
2023-05-06T09:40:52.451Z,20.16
2023-05-06T09:41:52.456Z,20.23
2023-05-06T09:42:52.394Z,20.41
2023-05-06T09:43:52.427Z,20.52
2023-05-06T09:44:52.383Z,20.61
2023-05-06T09:45:52.470Z,20.74
2023-05-06T09:46:52.381Z,20.79
2023-05-06T09:47:52.359Z,20.74
2023-05-06T09:48:52.364Z,20.64
2023-05-06T09:49:52.346Z,20.55
2023-05-06T09:50:52.299Z,20.51
2023-05-06T09:51:52.324Z,20.43
2023-05-06T09:52:52.285Z,20.41
2023-05-06T09:53:52.275Z,20.41
2023-05-06T09:54:52.270Z,20.54
2023-05-06T09:55:52.250Z,20.64
2023-05-06T09:56:52.218Z,20.73
2023-05-06T09:57:52.254Z,20.82
2023-05-06T09:58:52.196Z,20.84
2023-05-06T09:59:52.257Z,20.80
2023-05-06T10:00:52.197Z,20.77
2023-05-06T10:01:52.205Z,20.74
2023-05-06T10:02:52.290Z,20.84
2023-05-06T10:03:52.276Z,20.99
2023-05-06T10:04:52.419Z,21.22
2023-05-06T10:05:52.113Z,21.38
2023-05-06T10:06:52.131Z,21.53
2023-05-06T10:07:52.131Z,21.46
2023-05-06T10:08:52.075Z,21.44
2023-05-06T10:09:52.089Z,21.38
2023-05-06T10:10:52.032Z,21.44
2023-05-06T10:11:52.063Z,21.54
2023-05-06T10:12:52.075Z,21.64
2023-05-06T10:13:52.028Z,21.74
2023-05-06T10:14:51.998Z,21.84
2023-05-06T10:15:52.040Z,22.03
2023-05-06T10:16:51.980Z,22.17
2023-05-06T10:17:51.984Z,22.22
2023-05-06T10:18:51.936Z,22.15
2023-05-06T10:19:51.959Z,21.91
2023-05-06T10:20:51.911Z,21.83
2023-05-06T10:21:51.943Z,21.65
2023-05-06T10:22:51.910Z,21.43
2023-05-06T10:23:51.888Z,21.34
2023-05-06T10:24:51.913Z,21.25
2023-05-06T10:25:51.884Z,21.17
2023-05-06T10:26:51.839Z,21.17
2023-05-06T10:27:51.859Z,21.13
2023-05-06T10:28:51.815Z,21.06
2023-05-06T10:29:51.835Z,20.99
2023-05-06T10:30:51.804Z,20.99
2023-05-06T10:31:51.803Z,21.01
2023-05-06T10:32:51.771Z,21.04
2023-05-06T10:33:51.761Z,21.10
2023-05-06T10:34:51.728Z,21.21
2023-05-06T10:35:51.806Z,21.32
2023-05-06T10:36:51.682Z,21.29
2023-05-06T10:37:51.714Z,21.22
2023-05-06T10:38:51.741Z,21.10
2023-05-06T10:39:51.682Z,21.07
2023-05-06T10:40:51.669Z,21.06
2023-05-06T10:41:51.699Z,21.07
2023-05-06T10:42:51.616Z,21.13
2023-05-06T10:43:51.633Z,21.10
2023-05-06T10:44:51.584Z,21.10
2023-05-06T10:45:51.639Z,20.92
2023-05-06T10:46:51.579Z,20.72
2023-05-06T10:47:51.737Z,20.36
2023-05-06T10:48:51.537Z,20.18
2023-05-06T10:49:51.548Z,20.13
2023-05-06T10:50:51.541Z,20.10
2023-05-06T10:51:51.553Z,20.20
2023-05-06T10:52:51.481Z,20.33
2023-05-06T10:53:51.515Z,20.48
2023-05-06T10:54:51.465Z,20.58
2023-05-06T10:55:51.488Z,20.66
2023-05-06T10:56:51.452Z,20.79
2023-05-06T10:57:51.462Z,20.80
2023-05-06T10:58:51.431Z,20.70
2023-05-06T10:59:51.426Z,20.73
2023-05-06T11:00:51.465Z,20.73
2023-05-06T11:01:51.391Z,20.85
2023-05-06T11:02:51.479Z,20.94
2023-05-06T11:03:51.365Z,20.99
2023-05-06T11:04:51.356Z,20.95
2023-05-06T11:05:51.421Z,20.95
2023-05-06T11:06:51.301Z,21.04
2023-05-06T11:07:51.342Z,21.16
2023-05-06T11:08:51.276Z,21.25
2023-05-06T11:09:51.292Z,21.37
2023-05-06T11:10:51.261Z,21.28
2023-05-06T11:11:51.285Z,21.10
2023-05-06T11:12:51.338Z,21.06
2023-05-06T11:13:51.250Z,21.04
2023-05-06T11:14:51.360Z,21.06
2023-05-06T11:15:51.206Z,21.01
2023-05-06T11:16:51.338Z,20.98
2023-05-06T11:17:51.228Z,20.99
2023-05-06T11:18:51.183Z,21.03
2023-05-06T11:19:51.172Z,21.03
2023-05-06T11:20:51.151Z,21.12
2023-05-06T11:21:51.139Z,21.16
2023-05-06T11:22:51.109Z,21.16
2023-05-06T11:23:51.115Z,21.14
2023-05-06T11:24:51.131Z,21.04
2023-05-06T11:25:51.084Z,21.04
2023-05-06T11:26:51.042Z,21.09
2023-05-06T11:27:51.141Z,21.01
2023-05-06T11:28:51.032Z,21.06
2023-05-06T11:29:51.132Z,21.14
2023-05-06T11:30:51.051Z,21.13
2023-05-06T11:31:51.233Z,21.01
2023-05-06T11:32:51.083Z,20.97
2023-05-06T11:33:51.006Z,20.99
2023-05-06T11:34:50.988Z,21.03
2023-05-06T11:35:50.954Z,21.09
2023-05-06T11:36:50.926Z,21.16
2023-05-06T11:37:51.013Z,21.22
2023-05-06T11:38:50.877Z,21.27
2023-05-06T11:39:50.912Z,21.37
2023-05-06T11:40:51.412Z,21.40
2023-05-06T11:41:50.914Z,21.34
2023-05-06T11:42:50.864Z,21.37
2023-05-06T11:43:50.891Z,21.42
2023-05-06T11:44:50.893Z,21.27
2023-05-06T11:45:50.865Z,21.31
2023-05-06T11:46:51.000Z,21.40
2023-05-06T11:47:50.796Z,21.49
2023-05-06T11:48:50.820Z,21.52
2023-05-06T11:49:50.815Z,21.52
2023-05-06T11:50:50.793Z,21.47
2023-05-06T11:51:50.777Z,21.38
2023-05-06T11:52:50.707Z,21.32
2023-05-06T11:53:50.728Z,21.24
2023-05-06T11:54:50.694Z,21.19
2023-05-06T11:55:50.712Z,21.17
2023-05-06T11:56:50.719Z,21.22
2023-05-06T11:57:50.690Z,21.31
2023-05-06T11:58:51.205Z,21.38
2023-05-06T11:59:50.654Z,21.37
2023-05-06T12:00:51.483Z,21.31
2023-05-06T12:01:50.635Z,21.37
2023-05-06T12:02:50.631Z,21.40
2023-05-06T12:03:50.742Z,21.46
2023-05-06T12:04:50.596Z,21.47
2023-05-06T12:05:50.577Z,21.53
2023-05-06T12:06:50.570Z,21.61
2023-05-06T12:07:50.640Z,21.68
2023-05-06T12:08:50.496Z,21.77
2023-05-06T12:09:50.532Z,21.86
2023-05-06T12:10:50.494Z,21.91
2023-05-06T12:11:50.521Z,22.00
2023-05-06T12:12:50.493Z,21.98
2023-05-06T12:13:50.495Z,21.67
2023-05-06T12:14:50.423Z,21.56
2023-05-06T12:15:50.678Z,21.62
2023-05-06T12:16:52.040Z,21.69
2023-05-06T12:17:50.464Z,21.82
2023-05-06T12:18:50.402Z,21.92
2023-05-06T12:19:50.403Z,22.00
2023-05-06T12:20:50.339Z,22.03
2023-05-06T12:21:50.380Z,22.07
2023-05-06T12:22:50.350Z,22.14
2023-05-06T12:23:50.361Z,22.17
2023-05-06T12:24:50.367Z,22.21
2023-05-06T12:25:50.387Z,22.24
2023-05-06T12:26:50.280Z,22.21
2023-05-06T12:27:50.279Z,22.10
2023-05-06T12:28:50.283Z,22.00
2023-05-06T12:29:50.256Z,21.98
2023-05-06T12:30:50.215Z,22.02
2023-05-06T12:31:50.255Z,22.09
2023-05-06T12:32:50.250Z,22.20
2023-05-06T12:33:50.318Z,22.27
2023-05-06T12:34:50.336Z,22.28
2023-05-06T12:35:50.303Z,22.28
2023-05-06T12:36:50.174Z,22.21
2023-05-06T12:37:50.174Z,22.18
2023-05-06T12:38:50.222Z,22.17
2023-05-06T12:39:50.206Z,22.24
2023-05-06T12:40:50.103Z,22.31
2023-05-06T12:41:50.118Z,22.37
2023-05-06T12:42:50.072Z,22.43
2023-05-06T12:43:50.105Z,22.37
2023-05-06T12:44:50.104Z,22.30
2023-05-06T12:45:50.112Z,22.28
2023-05-06T12:46:50.029Z,22.33
2023-05-06T12:47:50.169Z,22.40
2023-05-06T12:48:49.987Z,22.42
2023-05-06T12:49:50.033Z,22.35
2023-05-06T12:50:49.976Z,22.14
2023-05-06T12:51:50.027Z,22.00